Terminal Aerodrome Forecast
Issued by NWS

Home | Current Version | Previous Version | Graphics & Text | Print | Product List | Glossary On
Versions: 1 2 3 4 5 6 7 8 9 10 11 12 13 14 15 16 17 18 19 20 21 22 23
000
FTUS43 KGRB 242100 AAB
TAFATW
TAF AMD
KATW 242109Z 2421/2518 20007KT P6SM SCT010 BKN080
     FM250100 20005KT 5SM BR SCT025
     FM250700 25005KT 4SM BR SCT012
     FM251300 29013KT P6SM SCT025=

USA.gov is the U.S. government's official web portal to all federal, state and local government web resources and services.